Terminal Aerodrome Forecast
Issued by NWS Omaha/Valley, NE

Current Version | Previous Version | Text Only | Print | Product List | Glossary On
Versions: 1 2 3 4 5 6 7 8 9 10 11 12 13 14 15 16 17
000
FTUS43 KOAX 220520
TAFOFK
TAF
KOFK 220520Z 2206/2306 14016KT P6SM SKC WS020/20050KT
     FM221300 18015G23KT P6SM FEW200
     FM230500 18014KT P6SM BKN250=

USA.gov is the U.S. government's official web portal to all federal, state and local government web resources and services.